createdAt,value
2017-12-03T00:01:47.394Z,18.75
2017-12-03T00:04:15.552Z,23.38
2017-12-03T00:06:44.658Z,17.35
2017-12-03T00:09:13.685Z,16.12
2017-12-03T00:11:41.854Z,16.23
2017-12-03T00:14:10.009Z,20.90
2017-12-03T00:16:39.031Z,21.12
2017-12-03T00:19:20.161Z,20.75
2017-12-03T00:21:48.326Z,22.90
2017-12-03T00:24:16.539Z,23.80
2017-12-03T00:26:44.678Z,19.75
2017-12-03T00:29:16.785Z,17.62
2017-12-03T00:31:49.362Z,19.48
2017-12-03T00:34:17.545Z,21.23
2017-12-03T00:36:46.310Z,21.00
2017-12-03T00:39:22.469Z,20.80
2017-12-03T00:41:51.380Z,21.02
2017-12-03T00:44:26.996Z,15.80
2017-12-03T00:46:55.169Z,25.17
2017-12-03T00:49:27.024Z,25.60
2017-12-03T00:51:57.601Z,18.25
2017-12-03T00:54:25.784Z,20.55
2017-12-03T00:56:53.933Z,21.60
2017-12-03T00:59:25.385Z,23.87
2017-12-03T01:01:53.549Z,18.60
2017-12-03T01:04:22.580Z,22.15
2017-12-03T01:06:50.726Z,24.95
2017-12-03T01:09:19.169Z,20.88
2017-12-03T01:11:47.380Z,25.27
2017-12-03T01:14:15.540Z,24.15
2017-12-03T01:16:45.505Z,22.87
2017-12-03T01:19:17.974Z,22.67
2017-12-03T01:21:46.225Z,23.02
2017-12-03T01:24:14.398Z,24.80
2017-12-03T01:26:42.559Z,21.75
2017-12-03T01:29:11.135Z,25.88
2017-12-03T01:31:39.286Z,25.30
2017-12-03T01:34:07.458Z,21.98
2017-12-03T01:36:35.609Z,20.40
2017-12-03T01:39:07.224Z,22.60
2017-12-03T01:41:35.496Z,19.95
2017-12-03T01:44:03.648Z,20.58
2017-12-03T01:46:31.867Z,23.25
2017-12-03T01:49:00.136Z,23.23
2017-12-03T01:51:28.300Z,25.52
2017-12-03T01:53:56.461Z,21.08
2017-12-03T01:56:24.719Z,22.00
2017-12-03T01:58:56.118Z,20.27
2017-12-03T02:01:30.607Z,20.80
2017-12-03T02:03:58.761Z,22.20
2017-12-03T02:06:27.914Z,20.73
2017-12-03T02:08:56.205Z,23.73
2017-12-03T02:11:24.381Z,21.45
2017-12-03T02:13:52.773Z,21.62
2017-12-03T02:16:20.930Z,21.05
2017-12-03T02:18:49.114Z,20.52
2017-12-03T02:21:17.286Z,21.23
2017-12-03T02:23:45.454Z,18.67
2017-12-03T02:26:13.624Z,21.12
2017-12-03T02:28:44.843Z,23.23
2017-12-03T02:31:13.125Z,20.92
2017-12-03T02:33:41.409Z,23.95
2017-12-03T02:36:09.662Z,23.17
2017-12-03T02:38:38.302Z,27.75
2017-12-03T02:41:06.450Z,21.75
2017-12-03T02:43:34.609Z,20.20
2017-12-03T02:46:03.630Z,21.02
2017-12-03T02:48:31.880Z,19.67
2017-12-03T02:51:00.043Z,21.98
2017-12-03T02:53:28.959Z,21.65
2017-12-03T02:55:57.141Z,22.20
2017-12-03T02:58:25.395Z,26.42
2017-12-03T03:00:53.574Z,21.67
2017-12-03T03:03:21.743Z,16.17
2017-12-03T03:05:49.963Z,18.50
2017-12-03T03:08:26.571Z,23.02
2017-12-03T03:10:55.580Z,18.48
2017-12-03T03:13:23.751Z,18.45
2017-12-03T03:15:51.936Z,17.58
2017-12-03T03:18:20.196Z,20.55
2017-12-03T03:20:48.345Z,21.52
2017-12-03T03:23:16.503Z,19.45
2017-12-03T03:25:44.643Z,19.02
2017-12-03T03:28:15.993Z,23.45
2017-12-03T03:30:44.168Z,17.20
2017-12-03T03:33:15.609Z,19.05
2017-12-03T03:35:43.770Z,16.50
2017-12-03T03:38:23.081Z,22.90
2017-12-03T03:40:57.704Z,23.87
2017-12-03T03:43:25.858Z,20.58
2017-12-03T03:45:57.877Z,19.10
2017-12-03T03:48:34.215Z,22.58
2017-12-03T03:51:09.184Z,22.73
2017-12-03T03:53:37.343Z,18.27
2017-12-03T03:56:15.444Z,24.73
2017-12-03T03:58:48.352Z,21.58
2017-12-03T04:01:16.508Z,21.87
2017-12-03T04:03:44.706Z,23.70
2017-12-03T04:06:12.849Z,21.70
2017-12-03T04:08:41.019Z,22.33
2017-12-03T04:11:09.958Z,19.83
2017-12-03T04:13:38.106Z,23.35
2017-12-03T04:16:06.313Z,20.08
2017-12-03T04:18:34.567Z,18.77
2017-12-03T04:21:02.739Z,19.15
2017-12-03T04:23:30.906Z,19.00
2017-12-03T04:25:59.110Z,22.25
2017-12-03T04:28:28.277Z,19.35
2017-12-03T04:30:56.438Z,19.12
2017-12-03T04:33:24.592Z,24.17
2017-12-03T04:35:53.522Z,23.38
2017-12-03T04:38:21.784Z,18.95
2017-12-03T04:40:49.968Z,22.58
2017-12-03T04:43:18.130Z,18.45
2017-12-03T04:45:46.285Z,24.85
2017-12-03T04:48:15.295Z,26.42
2017-12-03T04:50:43.447Z,20.60
2017-12-03T04:53:12.406Z,20.37
2017-12-03T04:55:40.574Z,16.95
2017-12-03T04:58:08.837Z,18.27
2017-12-03T05:00:36.999Z,17.60
2017-12-03T05:03:05.170Z,15.57
2017-12-03T05:05:33.347Z,17.52
2017-12-03T05:08:07.944Z,18.83
2017-12-03T05:10:36.857Z,23.73
2017-12-03T05:13:05.038Z,24.00
2017-12-03T05:15:33.206Z,18.58
2017-12-03T05:18:02.414Z,17.08
2017-12-03T05:20:30.597Z,17.20
2017-12-03T05:22:59.533Z,20.90
2017-12-03T05:25:27.696Z,17.90
2017-12-03T05:27:56.018Z,19.85
2017-12-03T05:30:25.015Z,20.40
2017-12-03T05:32:54.399Z,19.85
2017-12-03T05:35:23.696Z,18.62
2017-12-03T05:37:52.726Z,21.70
2017-12-03T05:40:20.872Z,23.48
2017-12-03T05:42:49.781Z,19.98
2017-12-03T05:45:17.945Z,18.65
2017-12-03T05:47:51.568Z,20.15
2017-12-03T05:50:19.757Z,15.30
2017-12-03T05:52:47.918Z,15.77
2017-12-03T05:55:16.104Z,15.40
2017-12-03T05:57:44.336Z,18.60
2017-12-03T06:00:21.799Z,17.42
2017-12-03T06:02:49.964Z,18.98
2017-12-03T06:05:19.038Z,13.75
2017-12-03T06:07:52.258Z,18.37
2017-12-03T06:10:20.422Z,16.15
2017-12-03T06:15:47.870Z,19.75
2017-12-03T06:18:16.123Z,15.90
2017-12-03T06:20:44.308Z,16.40
2017-12-03T06:23:12.523Z,20.05
2017-12-03T06:25:40.714Z,17.45
2017-12-03T06:28:09.860Z,20.20
2017-12-03T06:30:38.046Z,13.32
2017-12-03T06:33:06.207Z,19.42
2017-12-03T06:35:34.402Z,17.15
2017-12-03T06:38:02.577Z,17.17
2017-12-03T06:40:31.600Z,15.13
2017-12-03T06:43:00.631Z,17.27
2017-12-03T06:45:30.465Z,15.90
2017-12-03T06:47:58.803Z,13.77
2017-12-03T06:50:27.749Z,13.73
2017-12-03T06:52:55.945Z,15.95
2017-12-03T06:55:24.133Z,17.02
2017-12-03T06:57:55.518Z,16.08
2017-12-03T07:00:26.870Z,16.33
2017-12-03T07:02:55.115Z,16.17
2017-12-03T07:05:23.416Z,17.20
2017-12-03T07:07:52.130Z,15.77
2017-12-03T07:10:20.349Z,14.02
2017-12-03T07:12:48.556Z,17.70
2017-12-03T07:15:16.721Z,14.35
2017-12-03T07:17:45.119Z,17.83
2017-12-03T07:20:13.280Z,18.80
2017-12-03T07:22:42.080Z,13.77
2017-12-03T07:25:10.237Z,17.48
2017-12-03T07:27:38.517Z,12.25
2017-12-03T07:30:06.689Z,15.90
2017-12-03T07:32:34.869Z,12.90
2017-12-03T07:35:03.038Z,14.27
2017-12-03T07:37:31.236Z,16.45
2017-12-03T07:39:59.673Z,16.48
2017-12-03T07:42:27.853Z,14.65
2017-12-03T07:44:56.783Z,20.35
2017-12-03T07:47:24.961Z,19.00
2017-12-03T07:49:53.109Z,16.65
2017-12-03T07:52:21.390Z,14.25
2017-12-03T07:54:49.570Z,20.75
2017-12-03T07:57:17.732Z,19.33
2017-12-03T07:59:45.924Z,18.50
2017-12-03T08:02:14.367Z,21.30
2017-12-03T08:04:43.311Z,22.40
2017-12-03T08:07:12.249Z,18.12
2017-12-03T08:09:41.219Z,13.95
2017-12-03T08:12:09.374Z,13.73
2017-12-03T08:14:37.564Z,14.32
2017-12-03T08:17:06.578Z,17.23
2017-12-03T08:19:41.612Z,19.55
2017-12-03T08:22:10.631Z,24.60
2017-12-03T08:24:40.015Z,20.48
2017-12-03T08:27:08.164Z,12.90
2017-12-03T08:29:40.057Z,15.10
2017-12-03T08:32:09.823Z,18.33
2017-12-03T08:34:38.638Z,23.20
2017-12-03T08:37:06.786Z,15.10
2017-12-03T08:39:34.965Z,10.90
2017-12-03T08:42:03.121Z,14.95
2017-12-03T08:44:31.285Z,12.50
2017-12-03T08:46:59.448Z,17.02
2017-12-03T08:49:30.572Z,14.30
2017-12-03T08:51:58.736Z,12.30
2017-12-03T08:54:26.932Z,16.48
2017-12-03T08:56:56.242Z,14.00
2017-12-03T08:59:25.468Z,20.85
2017-12-03T09:01:53.638Z,13.32
2017-12-03T09:04:21.845Z,12.93
2017-12-03T09:06:50.090Z,15.20
2017-12-03T09:09:20.540Z,21.27
2017-12-03T09:11:48.701Z,16.62
2017-12-03T09:14:17.022Z,20.48
2017-12-03T09:16:45.207Z,15.40
2017-12-03T09:19:15.264Z,12.45
2017-12-03T09:21:43.429Z,15.70
2017-12-03T09:24:11.609Z,18.20
2017-12-03T09:26:39.772Z,16.00
2017-12-03T09:29:11.314Z,17.73
2017-12-03T09:31:40.496Z,16.83
2017-12-03T09:34:08.662Z,18.40
2017-12-03T09:36:37.596Z,21.75
2017-12-03T09:39:06.428Z,27.40
2017-12-03T09:41:35.394Z,18.23
2017-12-03T09:44:03.575Z,17.40
2017-12-03T09:46:31.758Z,16.77
2017-12-03T09:49:00.001Z,16.67
2017-12-03T09:51:28.156Z,18.83
2017-12-03T09:53:56.330Z,20.37
2017-12-03T09:56:24.509Z,16.83
2017-12-03T09:58:55.751Z,19.92
2017-12-03T10:01:23.928Z,14.77
2017-12-03T10:03:58.768Z,14.45
2017-12-03T10:06:27.226Z,16.27
2017-12-03T10:08:56.245Z,16.40
2017-12-03T10:11:24.416Z,17.70
2017-12-03T10:13:52.587Z,11.20
2017-12-03T10:16:20.768Z,18.40
2017-12-03T10:18:49.938Z,17.75
2017-12-03T10:21:18.112Z,16.70
2017-12-03T10:23:46.326Z,16.25
2017-12-03T10:26:14.723Z,18.05
2017-12-03T10:28:44.710Z,24.65
2017-12-03T10:31:12.870Z,17.58
2017-12-03T10:33:41.029Z,14.23
2017-12-03T10:36:09.204Z,18.17
2017-12-03T10:38:40.223Z,14.13
2017-12-03T10:41:09.946Z,12.57
2017-12-03T10:43:44.461Z,12.85
2017-12-03T10:46:14.237Z,16.10
2017-12-03T10:48:43.918Z,18.05
2017-12-03T10:51:12.101Z,17.52
2017-12-03T10:53:40.404Z,17.92
2017-12-03T10:56:08.773Z,15.50
2017-12-03T10:58:36.953Z,18.17
2017-12-03T11:01:05.178Z,12.98
2017-12-03T11:03:33.326Z,15.23
2017-12-03T11:06:02.389Z,18.52
2017-12-03T11:08:30.619Z,17.12
2017-12-03T11:10:58.787Z,14.90
2017-12-03T11:13:27.706Z,14.82
2017-12-03T11:15:55.873Z,15.38
2017-12-03T11:18:24.163Z,13.10
2017-12-03T11:20:52.296Z,17.35
2017-12-03T11:23:20.470Z,15.38
2017-12-03T11:25:49.427Z,13.43
2017-12-03T11:28:17.702Z,19.87
2017-12-03T11:30:45.884Z,12.70
2017-12-03T11:33:14.340Z,15.45
2017-12-03T11:35:43.288Z,17.85
2017-12-03T11:38:11.597Z,18.80
2017-12-03T11:40:40.622Z,15.23
2017-12-03T11:43:08.847Z,20.62
2017-12-03T11:45:37.069Z,15.65
2017-12-03T11:48:08.869Z,18.33
2017-12-03T11:50:37.810Z,19.15
2017-12-03T11:53:09.220Z,22.70
2017-12-03T11:55:38.398Z,18.55
2017-12-03T11:58:07.886Z,16.75
2017-12-03T12:00:36.071Z,18.75
2017-12-03T12:03:04.245Z,16.60
2017-12-03T12:05:33.182Z,19.55
2017-12-03T12:08:03.624Z,18.20
2017-12-03T12:10:32.062Z,24.77
2017-12-03T12:13:01.006Z,20.55
2017-12-03T12:15:29.177Z,16.27
2017-12-03T12:17:57.749Z,13.95
2017-12-03T12:20:26.668Z,16.25
2017-12-03T12:22:55.738Z,24.92
2017-12-03T12:25:23.908Z,18.02
2017-12-03T12:27:52.896Z,13.80
2017-12-03T12:30:22.041Z,19.70
2017-12-03T12:32:50.190Z,18.83
2017-12-03T12:35:18.344Z,20.35
2017-12-03T12:37:46.612Z,18.60
2017-12-03T12:40:14.787Z,15.70
2017-12-03T12:42:42.955Z,17.85
2017-12-03T12:45:11.142Z,18.35
2017-12-03T12:47:39.878Z,16.62
2017-12-03T12:50:08.044Z,16.80
2017-12-03T12:52:36.213Z,21.35
2017-12-03T12:55:04.369Z,21.25
2017-12-03T12:57:33.023Z,17.50
2017-12-03T13:00:01.187Z,17.92
2017-12-03T13:02:30.084Z,16.02
2017-12-03T13:04:58.662Z,19.05
2017-12-03T13:07:26.854Z,18.50
2017-12-03T13:09:55.012Z,19.55
2017-12-03T13:12:23.176Z,18.27
2017-12-03T13:14:52.920Z,19.62
2017-12-03T13:17:21.697Z,16.73
2017-12-03T13:19:49.871Z,19.33
2017-12-03T13:22:19.422Z,17.27
2017-12-03T13:24:48.085Z,19.12
2017-12-03T13:27:16.242Z,21.00
2017-12-03T13:29:44.403Z,17.75
2017-12-03T13:32:12.571Z,16.27
2017-12-03T13:34:41.955Z,16.87
2017-12-03T13:37:10.862Z,16.62
2017-12-03T13:39:39.121Z,16.45
2017-12-03T13:42:08.911Z,14.87
2017-12-03T13:44:38.254Z,32.95
2017-12-03T13:47:08.499Z,15.00
2017-12-03T13:49:38.573Z,14.55
2017-12-03T13:52:08.502Z,17.75
2017-12-03T13:54:37.461Z,16.52
2017-12-03T13:57:05.634Z,15.27
2017-12-03T13:59:35.123Z,15.50
2017-12-03T14:02:03.613Z,16.35
2017-12-03T14:04:31.886Z,15.07
2017-12-03T14:07:00.065Z,18.42
2017-12-03T14:09:28.413Z,21.48
2017-12-03T14:11:56.576Z,19.60
2017-12-03T14:14:24.751Z,18.27
2017-12-03T14:16:52.924Z,20.40
2017-12-03T14:19:21.521Z,21.75
2017-12-03T14:21:49.868Z,19.40
2017-12-03T14:24:18.887Z,21.12
2017-12-03T14:26:47.059Z,22.92
2017-12-03T14:29:15.628Z,20.20
2017-12-03T14:31:43.797Z,17.50
2017-12-03T14:34:12.729Z,18.33
2017-12-03T14:36:41.673Z,33.40
2017-12-03T14:39:10.880Z,29.15
2017-12-03T14:41:39.042Z,17.92
2017-12-03T14:44:07.210Z,19.37
2017-12-03T14:46:36.159Z,17.20
2017-12-03T14:49:04.329Z,19.15
2017-12-03T14:51:32.518Z,19.52
2017-12-03T14:54:01.247Z,27.92
2017-12-03T14:56:29.450Z,21.08
2017-12-03T14:58:57.652Z,22.55
2017-12-03T15:01:25.803Z,18.83
2017-12-03T15:03:54.778Z,23.38
2017-12-03T15:06:22.930Z,18.40
2017-12-03T15:08:51.976Z,21.98
2017-12-03T15:11:20.132Z,25.00
2017-12-03T15:13:48.310Z,20.10
2017-12-03T15:16:17.244Z,19.92
2017-12-03T15:18:45.458Z,22.45
2017-12-03T15:21:14.622Z,21.85
2017-12-03T15:23:42.788Z,25.95
2017-12-03T15:28:17.673Z,27.15
2017-12-03T15:30:45.829Z,21.00
2017-12-03T15:33:14.752Z,24.30
2017-12-03T15:35:42.926Z,22.60
2017-12-03T15:38:11.176Z,21.20
2017-12-03T15:40:39.403Z,25.55
2017-12-03T15:43:07.568Z,20.37
2017-12-03T15:45:36.130Z,24.17
2017-12-03T15:48:04.307Z,20.12
2017-12-03T15:50:32.493Z,24.70
2017-12-03T15:53:00.653Z,21.45
2017-12-03T15:55:28.811Z,23.77
2017-12-03T15:57:57.834Z,21.40
2017-12-03T16:00:25.997Z,23.52
2017-12-03T16:02:54.163Z,26.30
2017-12-03T16:05:22.339Z,21.98
2017-12-03T16:07:50.494Z,24.45
2017-12-03T16:10:18.681Z,18.45
2017-12-03T16:12:47.626Z,20.55
2017-12-03T16:15:15.815Z,19.35
2017-12-03T16:17:44.031Z,21.58
2017-12-03T16:20:12.196Z,22.35
2017-12-03T16:22:40.352Z,21.80
2017-12-03T16:25:09.280Z,24.50
2017-12-03T16:27:37.561Z,24.42
2017-12-03T16:30:05.715Z,21.02
2017-12-03T16:32:33.905Z,26.33
2017-12-03T16:35:02.993Z,23.48
2017-12-03T16:37:31.221Z,20.85
2017-12-03T16:39:59.387Z,23.48
2017-12-03T16:42:27.558Z,22.50
2017-12-03T16:44:55.738Z,23.67
2017-12-03T16:47:24.625Z,23.42
2017-12-03T16:49:52.766Z,22.55
2017-12-03T16:52:20.921Z,22.92
2017-12-03T16:54:49.102Z,24.58
2017-12-03T16:57:17.264Z,20.62
2017-12-03T16:59:45.483Z,28.00
2017-12-03T17:02:13.804Z,23.00
2017-12-03T17:04:41.949Z,20.75
2017-12-03T17:07:10.965Z,22.15
2017-12-03T17:09:39.276Z,22.83
2017-12-03T17:12:07.448Z,21.70
2017-12-03T17:14:35.613Z,23.33
2017-12-03T17:17:03.769Z,26.33
2017-12-03T17:19:32.795Z,28.77
2017-12-03T17:22:00.993Z,26.85
2017-12-03T17:24:29.174Z,25.25
2017-12-03T17:26:57.439Z,21.92
2017-12-03T17:29:25.733Z,23.30
2017-12-03T17:31:54.023Z,25.80
2017-12-03T17:34:22.200Z,23.65
2017-12-03T17:36:50.800Z,25.58
2017-12-03T17:39:19.974Z,25.33
2017-12-03T17:41:48.133Z,23.62
2017-12-03T17:44:16.312Z,23.80
2017-12-03T17:46:44.530Z,22.50
2017-12-03T17:49:15.323Z,23.48
2017-12-03T17:51:43.542Z,23.95
2017-12-03T17:54:12.463Z,18.20
2017-12-03T17:56:41.412Z,21.50
2017-12-03T17:59:11.375Z,25.40
2017-12-03T18:01:39.533Z,25.02
2017-12-03T18:04:08.467Z,24.25
2017-12-03T18:06:36.632Z,20.27
2017-12-03T18:09:04.858Z,20.37
2017-12-03T18:11:34.168Z,19.95
2017-12-03T18:14:02.334Z,23.17
2017-12-03T18:16:30.502Z,22.85
2017-12-03T18:18:58.780Z,24.80
2017-12-03T18:21:26.942Z,23.00
2017-12-03T18:23:55.886Z,22.98
2017-12-03T18:26:24.033Z,22.48
2017-12-03T18:28:52.309Z,22.35
2017-12-03T18:31:20.476Z,23.50
2017-12-03T18:33:48.643Z,19.58
2017-12-03T18:36:16.804Z,27.00
2017-12-03T18:38:45.844Z,24.63
2017-12-03T18:41:13.997Z,26.20
2017-12-03T18:43:42.932Z,21.23
2017-12-03T18:46:11.110Z,25.88
2017-12-03T18:48:39.360Z,27.75
2017-12-03T18:51:07.526Z,12.63
2017-12-03T18:53:35.703Z,27.65
2017-12-03T18:56:03.869Z,19.52
2017-12-03T18:58:32.856Z,29.23
2017-12-03T19:01:01.067Z,25.45
2017-12-03T19:03:29.400Z,25.77
2017-12-03T19:05:59.040Z,32.88
2017-12-03T19:08:27.224Z,22.87
2017-12-03T19:10:55.394Z,21.92
2017-12-03T19:13:24.723Z,22.30
2017-12-03T19:15:52.901Z,28.90
2017-12-03T19:18:26.533Z,23.17
2017-12-03T19:21:03.623Z,26.05
2017-12-03T19:23:31.783Z,29.90
2017-12-03T19:26:00.431Z,34.00
2017-12-03T19:28:28.596Z,19.92
2017-12-03T19:30:56.757Z,23.58
2017-12-03T19:33:24.935Z,22.87
2017-12-03T19:35:53.089Z,23.65
2017-12-03T19:38:21.242Z,22.73
2017-12-03T19:40:49.417Z,25.00
2017-12-03T19:43:18.328Z,31.70
2017-12-03T19:45:46.511Z,35.88
2017-12-03T19:48:16.603Z,24.77
2017-12-03T19:50:44.770Z,24.87
2017-12-03T19:53:12.951Z,24.87
2017-12-03T19:55:41.123Z,32.25
2017-12-03T19:58:09.298Z,24.23
2017-12-03T20:00:38.287Z,28.10
2017-12-03T20:03:07.198Z,21.12
2017-12-03T20:05:35.956Z,23.73
2017-12-03T20:08:09.137Z,30.90
2017-12-03T20:10:38.273Z,27.90
2017-12-03T20:13:06.450Z,31.35
2017-12-03T20:15:34.609Z,30.67
2017-12-03T20:18:02.886Z,31.10
2017-12-03T20:20:31.086Z,29.65
2017-12-03T20:22:59.250Z,25.12
2017-12-03T20:25:27.450Z,31.42
2017-12-03T20:27:57.646Z,43.47
2017-12-03T20:30:25.829Z,28.85
2017-12-03T20:32:53.996Z,34.83
2017-12-03T20:35:22.177Z,31.40
2017-12-03T20:37:52.231Z,24.17
2017-12-03T20:40:20.393Z,30.05
2017-12-03T20:42:49.356Z,23.92
2017-12-03T20:45:17.562Z,29.23
2017-12-03T20:47:46.734Z,23.45
2017-12-03T20:50:15.409Z,25.65
2017-12-03T20:52:43.583Z,24.87
2017-12-03T20:55:11.966Z,31.70
2017-12-03T20:57:40.245Z,27.42
2017-12-03T21:00:08.428Z,27.17
2017-12-03T21:02:36.672Z,32.67
2017-12-03T21:05:04.857Z,36.67
2017-12-03T21:07:34.057Z,26.60
2017-12-03T21:12:36.569Z,23.65
2017-12-03T21:15:04.734Z,37.35
2017-12-03T21:17:33.354Z,33.67
2017-12-03T21:20:01.516Z,25.80
2017-12-03T21:22:29.667Z,27.45
2017-12-03T21:24:57.832Z,22.65
2017-12-03T21:27:26.006Z,25.40
2017-12-03T21:29:54.165Z,30.80
2017-12-03T21:32:23.732Z,25.60
2017-12-03T21:34:51.947Z,29.73
2017-12-03T21:37:20.104Z,24.27
2017-12-03T21:39:49.020Z,26.55
2017-12-03T21:42:17.958Z,23.77
2017-12-03T21:44:46.106Z,25.55
2017-12-03T21:47:14.346Z,30.80
2017-12-03T21:49:44.186Z,24.08
2017-12-03T21:52:12.374Z,23.05
2017-12-03T21:54:40.541Z,23.95
2017-12-03T21:57:10.250Z,23.02
2017-12-03T21:59:41.895Z,18.02
2017-12-03T22:02:11.657Z,21.52
2017-12-03T22:04:42.112Z,28.23
2017-12-03T22:07:10.266Z,21.55
2017-12-03T22:09:38.471Z,23.50
2017-12-03T22:12:06.645Z,18.52
2017-12-03T22:14:36.158Z,32.97
2017-12-03T22:17:04.586Z,27.25
2017-12-03T22:19:32.809Z,28.00
2017-12-03T22:22:00.965Z,22.80
2017-12-03T22:24:29.898Z,16.52
2017-12-03T22:26:58.057Z,18.25
2017-12-03T22:29:26.327Z,22.00
2017-12-03T22:31:54.501Z,18.60
2017-12-03T22:34:22.678Z,22.62
2017-12-03T22:36:50.854Z,21.52
2017-12-03T22:39:24.343Z,24.77
2017-12-03T22:41:52.518Z,18.08
2017-12-03T22:44:21.721Z,17.05
2017-12-03T22:46:49.876Z,19.75
2017-12-03T22:49:18.884Z,18.58
2017-12-03T22:51:47.042Z,22.10
2017-12-03T22:54:15.973Z,19.45
2017-12-03T22:56:44.132Z,22.80
2017-12-03T22:59:12.961Z,18.00
2017-12-03T23:01:41.119Z,21.60
2017-12-03T23:04:09.280Z,19.37
2017-12-03T23:06:37.443Z,17.02
2017-12-03T23:09:05.702Z,18.98
2017-12-03T23:11:33.858Z,16.83
2017-12-03T23:14:02.016Z,17.33
2017-12-03T23:16:30.162Z,21.65
2017-12-03T23:18:58.417Z,18.40
2017-12-03T23:21:27.162Z,19.10
2017-12-03T23:23:57.014Z,17.60
2017-12-03T23:26:25.186Z,19.10
2017-12-03T23:28:56.863Z,16.65
2017-12-03T23:31:25.009Z,16.67
2017-12-03T23:33:55.237Z,16.98
2017-12-03T23:36:23.712Z,17.30
2017-12-03T23:38:52.790Z,16.48
2017-12-03T23:41:20.952Z,11.95
2017-12-03T23:43:49.152Z,18.23
2017-12-03T23:46:17.319Z,13.25
2017-12-03T23:48:45.505Z,16.50
2017-12-03T23:51:13.748Z,20.88
2017-12-03T23:53:42.667Z,16.62
2017-12-03T23:56:10.841Z,16.23
2017-12-03T23:58:39.708Z,13.77
